createdAt,value
2022-11-07T00:02:24.171Z,29.92
2022-11-07T00:05:13.361Z,32.35
2022-11-07T00:08:01.115Z,32.47
2022-11-07T00:10:48.665Z,33.58
2022-11-07T00:13:41.239Z,30.73
2022-11-07T00:16:29.474Z,30.63
2022-11-07T00:19:19.884Z,27.58
2022-11-07T00:22:09.123Z,28.85
2022-11-07T00:24:56.437Z,28.25
2022-11-07T00:27:44.152Z,28.83
2022-11-07T00:30:31.638Z,30.05
2022-11-07T00:33:19.362Z,27.73
2022-11-07T00:36:08.424Z,28.23
2022-11-07T00:38:57.280Z,29.52
2022-11-07T00:41:44.496Z,29.45
2022-11-07T00:44:32.219Z,29.38
2022-11-07T00:47:19.911Z,29.45
2022-11-07T00:50:09.221Z,27.23
2022-11-07T00:52:59.302Z,29.08
2022-11-07T00:55:48.267Z,28.63
2022-11-07T00:58:36.454Z,26.05
2022-11-07T01:01:27.527Z,26.25
2022-11-07T01:04:33.140Z,25.73
2022-11-07T01:07:20.801Z,25.25
2022-11-07T01:10:09.581Z,27.00
2022-11-07T01:12:58.915Z,25.70
2022-11-07T01:15:46.417Z,27.25
2022-11-07T01:18:34.189Z,27.73
2022-11-07T01:21:22.225Z,25.90
2022-11-07T01:24:12.055Z,24.73
2022-11-07T01:26:59.792Z,24.50
2022-11-07T01:29:48.646Z,23.52
2022-11-07T01:32:36.088Z,23.65
2022-11-07T01:35:23.741Z,22.27
2022-11-07T01:38:11.398Z,22.73
2022-11-07T01:41:16.693Z,21.85
2022-11-07T01:44:44.868Z,21.33
2022-11-07T01:47:38.915Z,20.73
2022-11-07T01:50:27.913Z,22.67
2022-11-07T01:53:15.635Z,22.27
2022-11-07T01:56:03.939Z,23.00
2022-11-07T01:58:52.009Z,22.90
2022-11-07T02:01:39.610Z,21.33
2022-11-07T02:04:31.993Z,20.00
2022-11-07T02:07:22.801Z,20.15
2022-11-07T02:10:12.429Z,21.20
2022-11-07T02:13:01.509Z,19.90
2022-11-07T02:15:49.176Z,19.23
2022-11-07T02:18:38.546Z,17.50
2022-11-07T02:21:38.200Z,17.77
2022-11-07T02:24:32.806Z,17.05
2022-11-07T02:27:25.688Z,18.17
2022-11-07T02:30:17.284Z,18.33
2022-11-07T02:33:05.279Z,19.13
2022-11-07T02:35:55.520Z,16.60
2022-11-07T02:38:43.644Z,16.27
2022-11-07T02:41:36.240Z,15.55
2022-11-07T02:44:24.067Z,16.00
2022-11-07T02:47:11.427Z,15.20
2022-11-07T02:49:59.043Z,15.43
2022-11-07T02:52:46.718Z,16.00
2022-11-07T02:55:34.138Z,15.65
2022-11-07T02:58:23.249Z,15.68
2022-11-07T03:01:12.514Z,15.35
2022-11-07T03:04:00.549Z,16.58
2022-11-07T03:06:48.221Z,16.02
2022-11-07T03:09:35.646Z,15.68
2022-11-07T03:12:22.985Z,14.63
2022-11-07T03:15:13.579Z,14.93
2022-11-07T03:18:00.962Z,15.20
2022-11-07T03:20:48.468Z,14.02
2022-11-07T03:23:37.889Z,15.30
2022-11-07T03:26:25.389Z,13.02
2022-11-07T03:29:12.983Z,14.05
2022-11-07T03:32:01.864Z,13.02
2022-11-07T03:34:49.542Z,13.43
2022-11-07T03:37:37.480Z,11.63
2022-11-07T03:40:24.881Z,12.77
2022-11-07T03:43:12.829Z,13.55
2022-11-07T03:46:00.905Z,11.77
2022-11-07T03:48:49.961Z,11.00
2022-11-07T03:51:37.668Z,11.38
2022-11-07T03:54:24.912Z,11.10
2022-11-07T03:57:12.614Z,11.38
2022-11-07T04:00:00.354Z,12.73
2022-11-07T04:02:47.869Z,12.07
2022-11-07T04:05:36.838Z,11.98
2022-11-07T04:08:24.559Z,11.95
2022-11-07T04:11:32.862Z,12.02
2022-11-07T04:14:37.657Z,11.23
2022-11-07T04:17:25.952Z,12.13
2022-11-07T04:20:13.684Z,11.45
2022-11-07T04:23:02.713Z,11.50
2022-11-07T04:26:07.491Z,11.38
2022-11-07T04:28:55.012Z,11.95
2022-11-07T04:31:42.611Z,12.38
2022-11-07T04:34:30.265Z,11.65
2022-11-07T04:37:18.183Z,11.00
2022-11-07T04:40:11.243Z,11.80
2022-11-07T04:42:59.341Z,10.90
2022-11-07T04:45:46.904Z,11.60
2022-11-07T04:48:34.477Z,11.52
2022-11-07T04:51:24.644Z,10.98
2022-11-07T04:54:14.443Z,11.20
2022-11-07T04:57:03.217Z,10.52
2022-11-07T04:59:50.475Z,9.55
2022-11-07T05:02:38.149Z,11.35
2022-11-07T05:05:26.065Z,10.25
2022-11-07T05:08:13.808Z,9.93
2022-11-07T05:11:01.359Z,9.68
2022-11-07T05:13:50.409Z,10.00
2022-11-07T05:16:38.584Z,11.40
2022-11-07T05:19:26.351Z,12.55
2022-11-07T05:22:31.619Z,12.60
2022-11-07T05:25:19.207Z,12.73
2022-11-07T05:28:07.072Z,11.13
2022-11-07T05:30:59.323Z,11.48
2022-11-07T05:33:47.101Z,10.23
2022-11-07T05:36:36.636Z,9.45
2022-11-07T05:39:24.707Z,8.95
2022-11-07T05:42:11.955Z,10.40
2022-11-07T05:44:59.866Z,10.43
2022-11-07T05:48:00.045Z,10.93
2022-11-07T05:50:47.328Z,11.65
2022-11-07T05:53:35.533Z,11.77
2022-11-07T05:56:25.647Z,11.10
2022-11-07T05:59:13.967Z,11.73
2022-11-07T06:02:01.386Z,10.45
2022-11-07T06:04:53.259Z,11.10
2022-11-07T06:07:41.685Z,10.40
2022-11-07T06:10:29.032Z,10.18
2022-11-07T06:13:17.938Z,10.80
2022-11-07T06:16:06.551Z,10.65
2022-11-07T06:18:56.325Z,11.10
2022-11-07T06:21:47.052Z,10.82
2022-11-07T06:24:34.546Z,10.73
2022-11-07T06:27:22.092Z,11.13
2022-11-07T06:30:11.275Z,11.45
2022-11-07T06:33:02.839Z,11.20
2022-11-07T06:35:50.324Z,12.23
2022-11-07T06:38:40.611Z,11.43
2022-11-07T06:41:31.303Z,10.57
2022-11-07T06:44:19.024Z,12.13
2022-11-07T06:47:06.735Z,10.85
2022-11-07T06:49:53.994Z,12.02
2022-11-07T06:52:41.733Z,11.70
2022-11-07T06:55:30.859Z,10.93
2022-11-07T06:58:18.183Z,11.90
2022-11-07T07:01:08.760Z,12.65
2022-11-07T07:03:56.424Z,11.60
2022-11-07T07:06:46.972Z,11.30
2022-11-07T07:09:34.752Z,11.98
2022-11-07T07:12:23.701Z,11.77
2022-11-07T07:15:11.790Z,11.23
2022-11-07T07:18:01.862Z,12.05
2022-11-07T07:20:49.843Z,11.65
2022-11-07T07:23:38.733Z,11.95
2022-11-07T07:26:29.423Z,10.35
2022-11-07T07:29:20.335Z,10.43
2022-11-07T07:32:07.970Z,10.65
2022-11-07T07:34:56.274Z,9.40
2022-11-07T07:37:43.936Z,9.27
2022-11-07T07:40:31.543Z,10.77
2022-11-07T07:43:21.067Z,9.15
2022-11-07T07:46:14.552Z,8.98
2022-11-07T07:49:09.310Z,9.23
2022-11-07T07:51:57.302Z,8.40
2022-11-07T07:54:44.859Z,8.73
2022-11-07T07:57:32.722Z,8.80
2022-11-07T08:00:20.788Z,8.77
2022-11-07T08:03:12.579Z,8.45
2022-11-07T08:06:00.801Z,8.13
2022-11-07T08:08:48.485Z,8.20
2022-11-07T08:11:36.240Z,8.80
2022-11-07T08:14:23.937Z,8.18
2022-11-07T08:17:11.491Z,8.57
2022-11-07T08:20:00.440Z,7.50
2022-11-07T08:22:48.067Z,7.68
2022-11-07T08:25:35.833Z,8.32
2022-11-07T08:28:28.186Z,7.47
2022-11-07T08:31:15.631Z,6.43
2022-11-07T08:34:03.685Z,6.97
2022-11-07T08:36:52.900Z,6.40
2022-11-07T08:39:40.463Z,6.75
2022-11-07T08:42:27.880Z,6.05
2022-11-07T08:45:15.440Z,7.05
2022-11-07T08:48:03.560Z,5.97
2022-11-07T08:50:54.637Z,6.35
2022-11-07T08:53:43.818Z,6.28
2022-11-07T08:56:31.290Z,6.40
2022-11-07T08:59:19.340Z,6.47
2022-11-07T09:05:17.237Z,5.90
2022-11-07T09:08:05.369Z,5.90
2022-11-07T09:10:54.262Z,5.93
2022-11-07T09:13:41.541Z,5.07
2022-11-07T09:16:29.295Z,6.18
2022-11-07T09:19:17.220Z,6.25
2022-11-07T09:22:04.777Z,5.88
2022-11-07T09:24:52.584Z,6.30
2022-11-07T09:27:41.897Z,5.88
2022-11-07T09:30:30.736Z,5.70
2022-11-07T09:33:19.189Z,6.75
2022-11-07T09:36:07.614Z,5.97
2022-11-07T09:38:57.438Z,6.50
2022-11-07T09:41:57.694Z,7.00
2022-11-07T09:44:57.665Z,6.80
2022-11-07T09:47:50.335Z,7.25
2022-11-07T09:50:41.590Z,7.32
2022-11-07T09:53:35.438Z,7.32
2022-11-07T09:56:23.626Z,7.22
2022-11-07T09:59:22.537Z,7.53
2022-11-07T10:02:18.405Z,7.55
2022-11-07T10:05:07.750Z,6.70
2022-11-07T10:08:04.921Z,6.68
2022-11-07T10:10:59.527Z,5.82
2022-11-07T10:14:00.203Z,6.18
2022-11-07T10:17:12.503Z,5.78
2022-11-07T10:20:24.325Z,5.07
2022-11-07T10:23:33.889Z,5.53
2022-11-07T10:26:28.387Z,4.85
2022-11-07T10:29:18.738Z,5.53
2022-11-07T10:32:18.155Z,4.60
2022-11-07T10:35:26.362Z,4.82
2022-11-07T10:38:27.837Z,4.65
2022-11-07T10:41:18.171Z,4.18
2022-11-07T10:44:08.923Z,5.05
2022-11-07T10:46:56.325Z,4.25
2022-11-07T10:49:56.125Z,3.65
2022-11-07T10:52:55.287Z,2.90
2022-11-07T10:55:49.514Z,2.72
2022-11-07T10:58:46.193Z,2.83
2022-11-07T11:01:34.264Z,3.22
2022-11-07T11:04:27.221Z,2.70
2022-11-07T11:07:14.839Z,2.58
2022-11-07T11:10:07.944Z,2.75
2022-11-07T11:12:58.798Z,2.70
2022-11-07T11:15:47.956Z,2.83
2022-11-07T11:18:38.316Z,2.70
2022-11-07T11:21:26.653Z,2.50
2022-11-07T11:24:27.644Z,2.42
2022-11-07T11:27:21.602Z,2.33
2022-11-07T11:30:16.311Z,2.00
2022-11-07T11:33:19.635Z,2.42
2022-11-07T11:36:13.893Z,2.08
2022-11-07T11:39:12.172Z,2.05
2022-11-07T11:42:00.667Z,2.65
2022-11-07T11:44:51.546Z,3.08
2022-11-07T11:47:42.712Z,3.50
2022-11-07T11:50:41.249Z,2.90
2022-11-07T11:53:30.009Z,3.50
2022-11-07T11:56:38.028Z,3.40
2022-11-07T12:00:06.737Z,3.03
2022-11-07T12:03:30.936Z,3.17
2022-11-07T12:06:21.156Z,3.70
2022-11-07T12:09:28.174Z,4.53
2022-11-07T12:12:28.115Z,5.85
2022-11-07T12:15:44.253Z,4.55
2022-11-07T12:18:40.512Z,4.93
2022-11-07T12:21:35.114Z,4.97
2022-11-07T12:24:39.226Z,5.20
2022-11-07T12:27:40.728Z,5.38
2022-11-07T12:30:46.487Z,5.75
2022-11-07T12:33:43.303Z,5.05
2022-11-07T12:36:51.922Z,6.05
2022-11-07T12:40:08.027Z,5.03
2022-11-07T12:43:10.788Z,5.47
2022-11-07T12:46:09.312Z,5.03
2022-11-07T12:49:15.576Z,5.88
2022-11-07T12:52:15.275Z,5.25
2022-11-07T12:55:06.253Z,6.22
2022-11-07T12:57:56.214Z,6.30
2022-11-07T13:00:44.651Z,6.38
2022-11-07T13:03:54.201Z,5.78
2022-11-07T13:06:50.253Z,4.65
2022-11-07T13:09:48.175Z,5.35
2022-11-07T13:12:45.375Z,6.13
2022-11-07T13:15:53.809Z,4.68
2022-11-07T13:18:42.377Z,4.60
2022-11-07T13:21:40.370Z,5.25
2022-11-07T13:24:27.981Z,5.10
2022-11-07T13:27:26.438Z,4.45
2022-11-07T13:30:22.459Z,4.93
2022-11-07T13:33:27.709Z,4.28
2022-11-07T13:36:28.165Z,4.65
2022-11-07T13:39:17.187Z,4.68
2022-11-07T13:42:06.009Z,5.20
2022-11-07T13:44:57.895Z,4.75
2022-11-07T13:47:46.647Z,4.55
2022-11-07T13:50:42.139Z,4.50
2022-11-07T13:53:38.722Z,4.13
2022-11-07T13:56:36.425Z,4.45
2022-11-07T13:59:40.305Z,4.40
2022-11-07T14:02:30.119Z,4.28
2022-11-07T14:05:18.520Z,4.32
2022-11-07T14:08:13.918Z,3.95
2022-11-07T14:11:02.830Z,5.30
2022-11-07T14:13:53.888Z,5.07
2022-11-07T14:16:45.638Z,5.30
2022-11-07T14:19:33.401Z,5.47
2022-11-07T14:22:30.020Z,4.38
2022-11-07T14:25:25.876Z,4.70
2022-11-07T14:28:18.976Z,4.95
2022-11-07T14:31:16.964Z,5.15
2022-11-07T14:34:17.477Z,5.15
2022-11-07T14:37:08.535Z,5.28
2022-11-07T14:39:56.816Z,5.55
2022-11-07T14:42:45.807Z,5.43
2022-11-07T14:48:45.370Z,5.72
2022-11-07T14:51:33.167Z,5.22
2022-11-07T14:54:22.470Z,4.88
2022-11-07T14:57:14.741Z,5.43
2022-11-07T15:00:02.370Z,5.60
2022-11-07T15:02:54.935Z,5.32
2022-11-07T15:05:46.818Z,5.63
2022-11-07T15:08:36.823Z,5.25
2022-11-07T15:11:33.298Z,6.10
2022-11-07T15:14:26.498Z,5.35
2022-11-07T15:17:25.142Z,5.93
2022-11-07T15:20:24.175Z,5.43
2022-11-07T15:23:32.058Z,6.28
2022-11-07T15:26:23.983Z,5.40
2022-11-07T15:29:22.303Z,5.50
2022-11-07T15:32:18.399Z,5.28
2022-11-07T15:35:42.287Z,5.93
2022-11-07T15:38:29.203Z,6.30
2022-11-07T15:41:17.173Z,5.75
2022-11-07T15:44:04.654Z,5.70
2022-11-07T15:46:52.166Z,6.43
2022-11-07T15:49:39.921Z,7.10
2022-11-07T15:52:27.625Z,7.80
2022-11-07T15:55:19.627Z,7.93
2022-11-07T15:58:06.935Z,9.27
2022-11-07T16:00:57.287Z,8.60
2022-11-07T16:03:44.877Z,9.23
2022-11-07T16:06:33.224Z,10.13
2022-11-07T16:09:24.714Z,8.88
2022-11-07T16:12:16.075Z,8.27
2022-11-07T16:15:03.796Z,8.80
2022-11-07T16:17:51.699Z,8.98
2022-11-07T16:20:39.145Z,8.80
2022-11-07T16:23:26.687Z,8.23
2022-11-07T16:26:17.067Z,8.32
2022-11-07T16:29:11.511Z,8.57
2022-11-07T16:31:58.999Z,7.90
2022-11-07T16:34:46.652Z,9.40
2022-11-07T16:37:34.457Z,8.77
2022-11-07T16:40:23.779Z,8.55
2022-11-07T16:43:11.254Z,7.80
2022-11-07T16:46:00.166Z,8.73
2022-11-07T16:48:50.407Z,8.60
2022-11-07T16:51:38.159Z,7.93
2022-11-07T16:54:27.776Z,8.27
2022-11-07T16:57:18.203Z,8.63
2022-11-07T17:00:07.648Z,8.38
2022-11-07T17:02:56.570Z,8.23
2022-11-07T17:05:44.204Z,8.90
2022-11-07T17:08:37.656Z,8.80
2022-11-07T17:11:25.388Z,9.02
2022-11-07T17:14:13.374Z,8.52
2022-11-07T17:17:03.665Z,8.98
2022-11-07T17:19:52.606Z,9.27
2022-11-07T17:22:45.360Z,9.50
2022-11-07T17:25:33.009Z,8.77
2022-11-07T17:28:21.114Z,8.05
2022-11-07T17:31:11.899Z,8.23
2022-11-07T17:33:59.783Z,8.35
2022-11-07T17:36:51.819Z,8.50
2022-11-07T17:39:39.427Z,9.00
2022-11-07T17:42:27.068Z,10.07
2022-11-07T17:45:15.470Z,8.68
2022-11-07T17:48:03.140Z,9.68
2022-11-07T17:50:50.767Z,9.18
2022-11-07T17:53:40.196Z,9.43
2022-11-07T17:56:30.965Z,10.65
2022-11-07T17:59:20.170Z,10.73
2022-11-07T18:02:16.541Z,9.40
2022-11-07T18:05:04.270Z,11.40
2022-11-07T18:07:52.746Z,10.85
2022-11-07T18:10:41.430Z,11.77
2022-11-07T18:13:28.881Z,9.93
2022-11-07T18:16:19.723Z,11.05
2022-11-07T18:19:08.605Z,10.73
2022-11-07T18:21:56.356Z,10.88
2022-11-07T18:24:44.001Z,11.20
2022-11-07T18:27:32.961Z,12.18
2022-11-07T18:30:20.577Z,10.93
2022-11-07T18:33:07.963Z,10.93
2022-11-07T18:35:55.949Z,11.90
2022-11-07T18:38:43.761Z,13.90
2022-11-07T18:41:31.161Z,11.82
2022-11-07T18:44:21.260Z,11.85
2022-11-07T18:47:08.609Z,12.02
2022-11-07T18:49:57.482Z,12.68
2022-11-07T18:52:45.859Z,13.23
2022-11-07T18:55:33.503Z,13.48
2022-11-07T18:58:20.967Z,13.85
2022-11-07T19:01:13.233Z,13.18
2022-11-07T19:04:03.647Z,14.07
2022-11-07T19:06:58.017Z,13.55
2022-11-07T19:09:48.750Z,14.40
2022-11-07T19:12:35.974Z,14.98
2022-11-07T19:15:27.191Z,13.68
2022-11-07T19:18:17.135Z,13.95
2022-11-07T19:21:05.867Z,13.00
2022-11-07T19:23:55.296Z,13.50
2022-11-07T19:26:42.725Z,13.60
2022-11-07T19:29:30.577Z,13.48
2022-11-07T19:32:18.848Z,13.93
2022-11-07T19:35:08.733Z,13.32
2022-11-07T19:37:56.101Z,12.93
2022-11-07T19:40:52.878Z,14.05
2022-11-07T19:43:42.528Z,14.25
2022-11-07T19:46:30.366Z,14.55
2022-11-07T19:49:18.013Z,14.52
2022-11-07T19:52:07.290Z,14.85
2022-11-07T19:54:57.344Z,14.60
2022-11-07T19:57:44.968Z,15.35
2022-11-07T20:00:33.171Z,14.73
2022-11-07T20:03:21.707Z,13.27
2022-11-07T20:06:15.232Z,13.55
2022-11-07T20:09:07.269Z,12.77
2022-11-07T20:11:54.930Z,13.73
2022-11-07T20:14:42.725Z,13.05
2022-11-07T20:17:30.291Z,13.45
2022-11-07T20:20:17.858Z,15.73
2022-11-07T20:23:05.747Z,14.30
2022-11-07T20:25:54.687Z,14.13
2022-11-07T20:28:42.381Z,12.63
2022-11-07T20:31:32.903Z,13.45
2022-11-07T20:34:22.065Z,14.32
2022-11-07T20:37:09.775Z,14.05
2022-11-07T20:39:57.454Z,13.60
2022-11-07T20:42:46.382Z,12.93
2022-11-07T20:45:35.431Z,14.15
2022-11-07T20:48:23.138Z,13.45
2022-11-07T20:51:12.150Z,15.00
2022-11-07T20:54:00.850Z,13.68
2022-11-07T20:56:48.428Z,13.88
2022-11-07T20:59:42.265Z,12.88
2022-11-07T21:02:29.994Z,13.85
2022-11-07T21:05:18.774Z,13.82
2022-11-07T21:08:07.154Z,12.77
2022-11-07T21:10:55.591Z,13.35
2022-11-07T21:13:49.665Z,12.45
2022-11-07T21:16:41.736Z,13.45
2022-11-07T21:19:30.020Z,13.70
2022-11-07T21:22:17.377Z,13.27
2022-11-07T21:25:06.011Z,14.52
2022-11-07T21:27:56.044Z,13.20
2022-11-07T21:30:43.334Z,12.70
2022-11-07T21:33:32.528Z,13.48
2022-11-07T21:36:23.481Z,13.05
2022-11-07T21:39:12.597Z,13.48
2022-11-07T21:42:00.349Z,13.55
2022-11-07T21:44:48.617Z,13.80
2022-11-07T21:47:35.933Z,12.90
2022-11-07T21:50:43.436Z,12.88
2022-11-07T21:53:36.632Z,12.93
2022-11-07T21:56:29.935Z,13.68
2022-11-07T21:59:17.964Z,12.48
2022-11-07T22:02:06.120Z,14.02
2022-11-07T22:04:53.629Z,12.10
2022-11-07T22:07:42.874Z,12.25
2022-11-07T22:10:30.422Z,12.45
2022-11-07T22:13:19.561Z,11.18
2022-11-07T22:16:13.384Z,11.63
2022-11-07T22:19:01.507Z,11.93
2022-11-07T22:21:50.573Z,12.73
2022-11-07T22:24:40.076Z,11.13
2022-11-07T22:27:27.882Z,10.75
2022-11-07T22:30:15.853Z,11.32
2022-11-07T22:33:03.586Z,11.45
2022-11-07T22:35:51.370Z,10.63
2022-11-07T22:38:40.206Z,11.10
2022-11-07T22:41:30.327Z,10.40
2022-11-07T22:44:17.634Z,10.98
2022-11-07T22:47:05.265Z,11.27
2022-11-07T22:49:52.892Z,10.45
2022-11-07T22:52:40.381Z,10.90
2022-11-07T22:55:30.371Z,10.75
2022-11-07T22:58:19.722Z,10.98
2022-11-07T23:01:14.564Z,10.63
2022-11-07T23:04:02.573Z,10.80
2022-11-07T23:06:50.050Z,11.88
2022-11-07T23:09:37.849Z,11.07
2022-11-07T23:12:25.452Z,11.85
2022-11-07T23:15:14.733Z,10.55
2022-11-07T23:18:02.267Z,10.18
2022-11-07T23:21:07.041Z,10.07
2022-11-07T23:23:56.346Z,11.05
2022-11-07T23:26:43.953Z,9.35
2022-11-07T23:29:31.472Z,10.13
2022-11-07T23:32:20.695Z,10.35
2022-11-07T23:35:09.961Z,9.80
2022-11-07T23:37:57.382Z,10.13
2022-11-07T23:40:45.282Z,10.30
2022-11-07T23:43:33.544Z,10.20
2022-11-07T23:46:40.904Z,10.10
2022-11-07T23:49:49.497Z,10.10
2022-11-07T23:52:37.144Z,10.25
2022-11-07T23:55:42.515Z,10.00
2022-11-07T23:58:47.096Z,9.18
